createdAt,value
2022-11-16T00:02:19.349Z,97.57
2022-11-16T00:04:47.182Z,97.65
2022-11-16T00:07:15.236Z,97.45
2022-11-16T00:09:42.998Z,97.39
2022-11-16T00:12:12.952Z,97.29
2022-11-16T00:14:40.716Z,97.22
2022-11-16T00:17:08.704Z,96.87
2022-11-16T00:19:36.441Z,96.79
2022-11-16T00:22:04.638Z,96.71
2022-11-16T00:24:32.384Z,96.70
2022-11-16T00:27:00.343Z,96.95
2022-11-16T00:29:28.412Z,96.76
2022-11-16T00:31:56.724Z,96.22
2022-11-16T00:34:24.768Z,95.93
2022-11-16T00:36:52.904Z,95.56
2022-11-16T00:39:21.098Z,95.56
2022-11-16T00:41:49.560Z,95.42
2022-11-16T00:44:18.932Z,95.13
2022-11-16T00:46:47.031Z,95.10
2022-11-16T00:49:14.796Z,95.48
2022-11-16T00:51:42.841Z,95.69
2022-11-16T00:54:11.144Z,95.62
2022-11-16T00:56:39.862Z,95.62
2022-11-16T00:59:08.209Z,95.57
2022-11-16T01:01:36.350Z,95.52
2022-11-16T01:04:04.317Z,95.87
2022-11-16T01:06:32.371Z,95.82
2022-11-16T01:09:01.784Z,95.92
2022-11-16T01:11:48.497Z,95.90
2022-11-16T01:14:16.686Z,95.54
2022-11-16T01:16:44.931Z,95.44
2022-11-16T01:19:12.638Z,95.29
2022-11-16T01:21:40.777Z,95.83
2022-11-16T01:24:08.607Z,96.01
2022-11-16T01:26:36.647Z,96.28
2022-11-16T01:29:04.784Z,96.35
2022-11-16T01:31:36.917Z,96.21
2022-11-16T01:34:05.869Z,96.29
2022-11-16T01:36:36.701Z,96.40
2022-11-16T01:39:05.959Z,96.41
2022-11-16T01:41:45.645Z,96.82
2022-11-16T01:44:32.573Z,96.75
2022-11-16T01:47:12.384Z,96.42
2022-11-16T01:49:58.249Z,96.69
2022-11-16T01:52:33.864Z,96.31
2022-11-16T01:55:04.071Z,95.94
2022-11-16T01:57:46.240Z,96.12
2022-11-16T02:00:15.192Z,95.61
2022-11-16T02:02:51.056Z,95.52
2022-11-16T02:05:50.916Z,95.33
2022-11-16T02:09:05.321Z,95.37
2022-11-16T02:11:42.246Z,94.88
2022-11-16T02:14:42.070Z,95.29
2022-11-16T02:17:42.447Z,95.34
2022-11-16T02:20:30.338Z,95.48
2022-11-16T02:23:38.284Z,95.62
2022-11-16T02:26:55.469Z,95.14
2022-11-16T02:29:31.482Z,95.54
2022-11-16T02:32:07.537Z,95.52
2022-11-16T02:34:48.858Z,95.63
2022-11-16T02:37:20.322Z,95.84
2022-11-16T02:39:52.064Z,96.35
2022-11-16T02:42:30.414Z,95.91
2022-11-16T02:44:59.742Z,96.06
2022-11-16T02:47:33.289Z,95.88
2022-11-16T02:50:11.292Z,95.45
2022-11-16T02:52:39.658Z,95.21
2022-11-16T02:55:10.468Z,95.26
2022-11-16T02:58:11.207Z,95.33
2022-11-16T03:00:48.237Z,95.45
2022-11-16T03:03:42.076Z,95.07
2022-11-16T03:06:31.926Z,94.85
2022-11-16T03:09:08.615Z,95.02
2022-11-16T03:12:03.107Z,94.88
2022-11-16T03:14:43.827Z,94.98
2022-11-16T03:17:50.872Z,94.70
2022-11-16T03:20:26.956Z,94.67
2022-11-16T03:22:57.540Z,94.84
2022-11-16T03:25:31.755Z,94.76
2022-11-16T03:28:36.695Z,94.49
2022-11-16T03:31:28.022Z,94.53
2022-11-16T03:34:00.997Z,94.79
2022-11-16T03:36:38.719Z,94.96
2022-11-16T03:39:15.707Z,95.31
2022-11-16T03:41:48.437Z,95.25
2022-11-16T03:44:19.220Z,95.24
2022-11-16T03:46:48.178Z,95.38
2022-11-16T03:49:20.274Z,95.20
2022-11-16T03:51:49.420Z,95.39
2022-11-16T03:54:17.507Z,94.76
2022-11-16T03:56:45.698Z,94.97
2022-11-16T03:59:13.559Z,94.90
2022-11-16T04:01:44.773Z,94.72
2022-11-16T04:04:34.352Z,94.04
2022-11-16T04:07:21.168Z,94.26
2022-11-16T04:10:07.724Z,94.17
2022-11-16T04:12:54.150Z,94.32
2022-11-16T04:15:40.093Z,94.68
2022-11-16T04:18:28.948Z,95.39
2022-11-16T04:21:15.721Z,95.56
2022-11-16T04:24:20.414Z,95.91
2022-11-16T04:27:11.569Z,96.02
2022-11-16T04:29:41.180Z,96.14
2022-11-16T04:32:28.697Z,96.27
2022-11-16T04:35:15.464Z,96.15
2022-11-16T04:37:50.034Z,96.20
2022-11-16T04:40:25.766Z,95.99
2022-11-16T04:42:59.048Z,96.26
2022-11-16T04:45:48.649Z,96.05
2022-11-16T04:48:20.331Z,96.46
2022-11-16T04:50:51.709Z,96.45
2022-11-16T04:53:22.572Z,96.74
2022-11-16T04:56:00.749Z,96.51
2022-11-16T04:58:29.782Z,95.93
2022-11-16T05:00:59.718Z,95.90
2022-11-16T05:03:27.842Z,95.98
2022-11-16T05:05:56.842Z,95.38
2022-11-16T05:08:25.491Z,95.75
2022-11-16T05:10:54.856Z,96.10
2022-11-16T05:13:22.722Z,96.27
2022-11-16T05:15:52.093Z,96.50
2022-11-16T05:18:19.710Z,96.82
2022-11-16T05:21:00.447Z,96.79
2022-11-16T05:23:48.717Z,96.76
2022-11-16T05:26:20.125Z,97.41
2022-11-16T05:28:47.963Z,97.37
2022-11-16T05:31:15.848Z,97.06
2022-11-16T05:33:44.128Z,97.21
2022-11-16T05:36:13.837Z,97.23
2022-11-16T05:38:41.508Z,97.37
2022-11-16T05:41:09.372Z,97.33
2022-11-16T05:43:37.260Z,96.89
2022-11-16T05:46:14.553Z,97.01
2022-11-16T05:48:42.295Z,96.86
2022-11-16T05:51:10.154Z,97.25
2022-11-16T05:53:37.726Z,96.75
2022-11-16T05:56:07.343Z,96.52
2022-11-16T05:58:38.490Z,97.08
2022-11-16T06:01:07.053Z,96.89
2022-11-16T06:03:36.352Z,96.92
2022-11-16T06:06:05.716Z,97.09
2022-11-16T06:08:33.813Z,96.78
2022-11-16T06:11:07.938Z,96.17
2022-11-16T06:13:37.578Z,96.18
2022-11-16T06:16:07.149Z,96.27
2022-11-16T06:18:44.855Z,96.44
2022-11-16T06:21:16.669Z,97.08
2022-11-16T06:23:45.374Z,97.35
2022-11-16T06:26:13.641Z,97.30
2022-11-16T06:28:41.449Z,96.71
2022-11-16T06:31:09.930Z,96.63
2022-11-16T06:33:41.699Z,95.89
2022-11-16T06:36:16.651Z,95.87
2022-11-16T06:38:44.474Z,95.96
2022-11-16T06:41:13.673Z,95.81
2022-11-16T06:43:45.972Z,96.03
2022-11-16T06:46:15.910Z,96.11
2022-11-16T06:48:43.587Z,95.62
2022-11-16T06:51:14.404Z,94.66
2022-11-16T06:53:42.191Z,94.64
2022-11-16T06:56:15.076Z,93.92
2022-11-16T06:58:53.489Z,93.74
2022-11-16T07:01:22.815Z,93.94
2022-11-16T07:03:53.124Z,93.89
2022-11-16T07:06:21.084Z,93.99
2022-11-16T07:08:48.862Z,94.24
2022-11-16T07:11:20.571Z,94.38
2022-11-16T07:13:49.286Z,94.77
2022-11-16T07:16:17.651Z,94.49
2022-11-16T07:18:52.788Z,94.48
2022-11-16T07:21:20.858Z,94.46
2022-11-16T07:23:48.897Z,94.70
2022-11-16T07:26:20.776Z,94.73
2022-11-16T07:28:53.954Z,95.02
2022-11-16T07:31:23.999Z,95.30
2022-11-16T07:34:11.756Z,95.95
2022-11-16T07:36:48.526Z,96.31
2022-11-16T07:39:18.139Z,95.92
2022-11-16T07:41:47.098Z,95.51
2022-11-16T07:44:28.581Z,94.79
2022-11-16T07:47:07.172Z,94.13
2022-11-16T07:49:36.679Z,94.02
2022-11-16T07:52:10.732Z,94.82
2022-11-16T07:54:52.333Z,95.04
2022-11-16T07:57:22.940Z,95.60
2022-11-16T07:59:52.133Z,96.08
2022-11-16T08:02:20.102Z,96.68
2022-11-16T08:04:50.475Z,96.25
2022-11-16T08:07:21.318Z,96.13
2022-11-16T08:09:53.999Z,96.55
2022-11-16T08:12:23.117Z,97.12
2022-11-16T08:14:50.753Z,96.65
2022-11-16T08:17:18.831Z,96.52
2022-11-16T08:19:46.496Z,96.67
2022-11-16T08:22:16.750Z,97.16
2022-11-16T08:24:45.962Z,96.78
2022-11-16T08:27:17.027Z,97.18
2022-11-16T08:29:47.382Z,97.75
2022-11-16T08:32:15.622Z,97.76
2022-11-16T08:34:44.379Z,97.91
2022-11-16T08:37:12.299Z,98.46
2022-11-16T08:39:43.906Z,98.60
2022-11-16T08:42:11.966Z,98.95
2022-11-16T08:44:40.831Z,98.74
2022-11-16T08:47:14.016Z,98.40
2022-11-16T08:49:49.687Z,98.54
2022-11-16T08:52:18.975Z,98.44
2022-11-16T08:54:47.347Z,98.91
2022-11-16T08:57:16.764Z,98.58
2022-11-16T08:59:46.544Z,98.63
2022-11-16T09:02:15.224Z,98.88
2022-11-16T09:04:43.864Z,98.84
2022-11-16T09:07:11.774Z,98.91
2022-11-16T09:09:39.445Z,99.44
2022-11-16T09:12:07.402Z,99.66
2022-11-16T09:14:34.995Z,99.84
2022-11-16T09:17:03.526Z,100.00
2022-11-16T09:19:31.100Z,99.56
2022-11-16T09:21:58.898Z,98.51
2022-11-16T09:24:26.554Z,98.29
2022-11-16T09:26:56.784Z,97.73
2022-11-16T09:29:24.464Z,97.32
2022-11-16T09:31:52.389Z,96.17
2022-11-16T09:34:20.060Z,95.54
2022-11-16T09:36:47.974Z,94.75
2022-11-16T09:39:32.032Z,93.70
2022-11-16T09:42:29.213Z,93.41
2022-11-16T09:45:42.941Z,93.48
2022-11-16T09:48:13.939Z,93.00
2022-11-16T09:50:48.679Z,91.86
2022-11-16T09:53:53.189Z,91.19
2022-11-16T09:56:22.789Z,91.16
2022-11-16T09:59:00.283Z,90.84
2022-11-16T10:01:46.185Z,90.64
2022-11-16T10:04:51.416Z,90.49
2022-11-16T10:07:27.658Z,89.37
2022-11-16T10:09:56.520Z,89.63
2022-11-16T10:12:43.691Z,89.27
2022-11-16T10:15:30.177Z,88.92
2022-11-16T10:18:18.993Z,89.31
2022-11-16T10:21:14.399Z,88.54
2022-11-16T10:24:35.748Z,88.01
2022-11-16T10:27:22.046Z,87.52
2022-11-16T10:30:18.895Z,86.83
2022-11-16T10:33:09.680Z,86.82
2022-11-16T10:35:46.915Z,86.79
2022-11-16T10:38:17.526Z,86.38
2022-11-16T10:40:52.046Z,85.91
2022-11-16T10:43:28.875Z,86.11
2022-11-16T10:46:05.483Z,86.55
2022-11-16T10:48:45.137Z,85.87
2022-11-16T10:51:12.704Z,86.27
2022-11-16T10:53:43.903Z,86.28
2022-11-16T10:56:21.871Z,86.35
2022-11-16T10:58:58.687Z,86.05
2022-11-16T11:01:57.810Z,86.42
2022-11-16T11:04:29.084Z,86.46
2022-11-16T11:06:59.281Z,86.56
2022-11-16T11:09:30.589Z,86.09
2022-11-16T11:12:40.192Z,86.47
2022-11-16T11:15:27.149Z,86.53
2022-11-16T11:18:19.424Z,86.79
2022-11-16T11:21:07.914Z,86.11
2022-11-16T11:23:51.332Z,84.91
2022-11-16T11:26:36.252Z,85.13
2022-11-16T11:29:22.532Z,84.48
2022-11-16T11:31:59.366Z,83.90
2022-11-16T11:34:30.657Z,84.19
2022-11-16T11:37:05.106Z,84.15
2022-11-16T11:39:37.235Z,83.82
2022-11-16T11:42:14.425Z,84.26
2022-11-16T11:44:54.559Z,84.56
2022-11-16T11:47:56.805Z,85.27
2022-11-16T11:50:53.179Z,86.49
2022-11-16T11:53:47.479Z,86.62
2022-11-16T11:56:15.673Z,86.56
2022-11-16T11:58:44.643Z,86.58
2022-11-16T12:01:39.926Z,86.79
2022-11-16T12:04:28.829Z,86.75
2022-11-16T12:07:21.530Z,88.74
2022-11-16T12:10:07.609Z,89.82
2022-11-16T12:12:56.683Z,90.55
2022-11-16T12:16:09.237Z,91.25
2022-11-16T12:18:39.372Z,91.66
2022-11-16T12:21:27.796Z,92.12
2022-11-16T12:23:55.313Z,92.50
2022-11-16T12:26:29.121Z,93.71
2022-11-16T12:29:20.707Z,95.03
2022-11-16T12:32:16.083Z,95.96
2022-11-16T12:34:52.576Z,96.61
2022-11-16T12:37:35.219Z,97.65
2022-11-16T12:40:34.750Z,98.15
2022-11-16T12:43:29.327Z,98.60
2022-11-16T12:46:11.617Z,99.61
2022-11-16T12:48:55.242Z,100.00
2022-11-16T12:51:46.664Z,100.00
2022-11-16T12:54:17.365Z,100.00
2022-11-16T12:57:11.876Z,100.00
2022-11-16T12:59:54.629Z,100.00
2022-11-16T13:02:33.816Z,100.00
2022-11-16T13:05:13.238Z,100.00
2022-11-16T13:07:48.313Z,100.00
2022-11-16T13:10:34.359Z,100.00
2022-11-16T13:13:41.351Z,100.00
2022-11-16T13:16:00.595Z,100.00
2022-11-16T13:18:29.934Z,100.00
2022-11-16T13:21:07.593Z,100.00
2022-11-16T13:23:48.094Z,100.00
2022-11-16T13:26:30.440Z,100.00
2022-11-16T13:29:04.464Z,100.00
2022-11-16T13:31:48.279Z,100.00
2022-11-16T13:34:30.068Z,100.00
2022-11-16T13:36:58.481Z,100.00
2022-11-16T13:39:47.814Z,100.00
2022-11-16T13:42:16.918Z,100.00
2022-11-16T13:44:50.290Z,100.00
2022-11-16T13:47:27.407Z,100.00
2022-11-16T13:50:16.736Z,100.00
2022-11-16T13:53:36.374Z,100.00
2022-11-16T13:55:41.754Z,100.00
2022-11-16T13:58:13.445Z,100.00
2022-11-16T14:00:41.750Z,100.00
2022-11-16T14:03:18.694Z,100.00
2022-11-16T14:05:51.488Z,100.00
2022-11-16T14:08:25.047Z,100.00
2022-11-16T14:10:52.721Z,100.00
2022-11-16T14:13:48.433Z,100.00
2022-11-16T14:16:25.264Z,100.00
2022-11-16T14:18:55.584Z,100.00
2022-11-16T14:21:35.853Z,100.00
2022-11-16T14:24:09.604Z,100.00
2022-11-16T14:26:49.496Z,100.00
2022-11-16T14:29:34.565Z,100.00
2022-11-16T14:32:04.506Z,100.00
2022-11-16T14:34:47.306Z,100.00
2022-11-16T14:37:28.326Z,100.00
2022-11-16T14:40:05.660Z,99.71
2022-11-16T14:42:54.432Z,99.39
2022-11-16T14:45:28.372Z,99.14
2022-11-16T14:48:15.296Z,98.70
2022-11-16T14:50:46.897Z,99.21
2022-11-16T14:53:19.112Z,98.35
2022-11-16T14:55:47.538Z,98.57
2022-11-16T14:58:23.342Z,98.80
2022-11-16T15:01:04.953Z,98.17
2022-11-16T15:03:38.941Z,97.89
2022-11-16T15:06:08.645Z,97.66
2022-11-16T15:08:44.755Z,97.61
2022-11-16T15:11:24.499Z,97.47
2022-11-16T15:13:52.219Z,97.73
2022-11-16T15:16:21.253Z,97.77
2022-11-16T15:18:59.505Z,97.88
2022-11-16T15:21:28.020Z,97.50
2022-11-16T15:26:44.320Z,97.53
2022-11-16T15:29:19.871Z,98.18
2022-11-16T15:31:48.723Z,97.26
2022-11-16T15:34:18.741Z,97.57
2022-11-16T15:36:48.132Z,97.38
2022-11-16T15:39:27.885Z,96.94
2022-11-16T15:42:02.107Z,96.84
2022-11-16T15:44:31.985Z,96.67
2022-11-16T15:47:00.588Z,96.51
2022-11-16T15:49:37.985Z,96.43
2022-11-16T15:52:06.278Z,96.34
2022-11-16T15:54:55.657Z,96.55
2022-11-16T15:57:24.955Z,95.98
2022-11-16T15:59:55.316Z,96.38
2022-11-16T16:02:27.599Z,96.51
2022-11-16T16:04:55.606Z,96.54
2022-11-16T16:07:44.069Z,96.45
2022-11-16T16:10:20.030Z,96.02
2022-11-16T16:12:51.351Z,95.94
2022-11-16T16:15:36.789Z,96.04
2022-11-16T16:18:35.986Z,95.71
2022-11-16T16:21:04.072Z,96.20
2022-11-16T16:23:32.193Z,96.32
2022-11-16T16:26:04.080Z,96.08
2022-11-16T16:28:31.981Z,96.77
2022-11-16T16:30:59.558Z,96.38
2022-11-16T16:33:28.673Z,95.92
2022-11-16T16:35:56.361Z,96.51
2022-11-16T16:38:24.270Z,95.31
2022-11-16T16:40:51.801Z,95.76
2022-11-16T16:43:19.626Z,95.83
2022-11-16T16:45:47.303Z,95.43
2022-11-16T16:48:15.173Z,95.39
2022-11-16T16:50:42.733Z,95.37
2022-11-16T16:53:14.673Z,95.13
2022-11-16T16:55:43.462Z,94.87
2022-11-16T16:58:13.654Z,94.17
2022-11-16T17:00:42.599Z,94.62
2022-11-16T17:03:11.197Z,94.39
2022-11-16T17:05:39.303Z,93.56
2022-11-16T17:08:07.365Z,93.09
2022-11-16T17:10:38.843Z,92.49
2022-11-16T17:13:06.816Z,92.04
2022-11-16T17:15:34.421Z,91.82
2022-11-16T17:18:02.627Z,91.78
2022-11-16T17:20:30.360Z,91.02
2022-11-16T17:22:58.304Z,91.57
2022-11-16T17:25:25.900Z,90.57
2022-11-16T17:27:53.705Z,90.62
2022-11-16T17:30:21.246Z,90.36
2022-11-16T17:32:49.214Z,90.51
2022-11-16T17:35:16.868Z,91.02
2022-11-16T17:37:44.777Z,91.35
2022-11-16T17:40:12.769Z,92.13
2022-11-16T17:42:40.825Z,92.04
2022-11-16T17:45:08.741Z,92.04
2022-11-16T17:47:36.548Z,92.24
2022-11-16T17:50:04.605Z,92.76
2022-11-16T17:52:32.477Z,92.75
2022-11-16T17:55:00.059Z,92.48
2022-11-16T17:57:28.012Z,92.19
2022-11-16T17:59:55.589Z,92.04
2022-11-16T18:02:23.485Z,92.57
2022-11-16T18:04:51.613Z,92.16
2022-11-16T18:07:19.686Z,92.35
2022-11-16T18:09:47.473Z,92.04
2022-11-16T18:12:15.338Z,91.94
2022-11-16T18:14:59.935Z,92.32
2022-11-16T18:17:31.881Z,92.22
2022-11-16T18:19:59.494Z,92.10
2022-11-16T18:22:27.369Z,91.37
2022-11-16T18:24:54.988Z,91.60
2022-11-16T18:27:23.152Z,91.12
2022-11-16T18:29:50.786Z,91.25
2022-11-16T18:32:18.628Z,91.36
2022-11-16T18:34:46.324Z,91.90
2022-11-16T18:37:14.237Z,91.63
2022-11-16T18:39:41.872Z,91.15
2022-11-16T18:42:12.121Z,91.20
2022-11-16T18:44:39.738Z,91.22
2022-11-16T18:47:07.585Z,91.20
2022-11-16T18:49:35.358Z,91.23
2022-11-16T18:52:03.283Z,90.83
2022-11-16T18:54:30.841Z,90.03
2022-11-16T18:56:58.742Z,90.45
2022-11-16T18:59:26.373Z,90.34
2022-11-16T19:01:54.263Z,90.78
2022-11-16T19:04:21.912Z,90.74
2022-11-16T19:06:49.749Z,90.75
2022-11-16T19:09:17.337Z,90.32
2022-11-16T19:11:45.380Z,90.43
2022-11-16T19:14:13.449Z,90.16
2022-11-16T19:16:49.078Z,90.43
2022-11-16T19:19:21.698Z,89.96
2022-11-16T19:21:49.713Z,89.86
2022-11-16T19:24:17.250Z,89.98
2022-11-16T19:26:45.145Z,90.26
2022-11-16T19:29:12.776Z,89.88
2022-11-16T19:31:40.717Z,89.67
2022-11-16T19:34:10.952Z,89.91
2022-11-16T19:36:39.225Z,89.98
2022-11-16T19:39:07.085Z,89.98
2022-11-16T19:41:34.946Z,89.88
2022-11-16T19:44:02.717Z,89.97
2022-11-16T19:46:32.572Z,89.88
2022-11-16T19:49:00.700Z,89.89
2022-11-16T19:51:31.352Z,89.72
2022-11-16T19:54:00.556Z,89.52
2022-11-16T19:56:28.884Z,89.66
2022-11-16T19:58:56.498Z,89.29
2022-11-16T20:01:28.709Z,89.52
2022-11-16T20:03:58.882Z,90.19
2022-11-16T20:06:29.439Z,89.55
2022-11-16T20:09:01.073Z,89.25
2022-11-16T20:11:31.565Z,89.99
2022-11-16T20:13:59.833Z,89.41
2022-11-16T20:16:34.075Z,88.93
2022-11-16T20:19:05.132Z,88.58
2022-11-16T20:21:36.235Z,88.59
2022-11-16T20:24:07.125Z,88.78
2022-11-16T20:26:37.490Z,88.74
2022-11-16T20:29:05.136Z,88.65
2022-11-16T20:31:33.878Z,88.72
2022-11-16T20:34:04.259Z,88.46
2022-11-16T20:36:33.653Z,88.44
2022-11-16T20:39:01.872Z,87.93
2022-11-16T20:41:32.184Z,87.91
2022-11-16T20:44:01.621Z,87.48
2022-11-16T20:46:32.792Z,87.46
2022-11-16T20:49:03.867Z,87.16
2022-11-16T20:51:31.806Z,87.05
2022-11-16T20:53:59.519Z,86.59
2022-11-16T20:56:27.571Z,87.20
2022-11-16T20:58:55.449Z,86.77
2022-11-16T21:01:30.939Z,86.16
2022-11-16T21:04:04.499Z,86.21
2022-11-16T21:06:32.734Z,85.75
2022-11-16T21:09:01.276Z,86.38
2022-11-16T21:11:30.960Z,85.99
2022-11-16T21:14:16.933Z,86.37
2022-11-16T21:16:44.857Z,86.15
2022-11-16T21:19:12.808Z,85.74
2022-11-16T21:21:41.347Z,85.46
2022-11-16T21:24:09.846Z,85.46
2022-11-16T21:26:38.129Z,85.63
2022-11-16T21:29:06.649Z,85.41
2022-11-16T21:31:36.453Z,84.98
2022-11-16T21:34:05.771Z,85.11
2022-11-16T21:36:34.191Z,84.76
2022-11-16T21:39:02.009Z,84.35
2022-11-16T21:41:29.914Z,84.88
2022-11-16T21:43:57.691Z,84.30
2022-11-16T21:46:27.135Z,85.02
2022-11-16T21:48:56.683Z,84.32
2022-11-16T21:51:26.793Z,84.08
2022-11-16T21:53:54.928Z,83.81
2022-11-16T21:56:25.366Z,84.20
2022-11-16T21:58:53.966Z,84.26
2022-11-16T22:01:23.973Z,83.68
2022-11-16T22:04:10.654Z,83.36
2022-11-16T22:06:57.079Z,82.73
2022-11-16T22:09:24.703Z,82.56
2022-11-16T22:14:58.448Z,82.07
2022-11-16T22:17:27.197Z,81.99
2022-11-16T22:19:55.378Z,81.70
2022-11-16T22:22:24.074Z,81.19
2022-11-16T22:24:51.978Z,81.72
2022-11-16T22:27:20.158Z,81.10
2022-11-16T22:29:47.857Z,81.30
2022-11-16T22:32:15.844Z,81.52
2022-11-16T22:34:43.586Z,81.05
2022-11-16T22:37:11.586Z,81.20
2022-11-16T22:39:39.469Z,80.99
2022-11-16T22:42:07.493Z,80.35
2022-11-16T22:44:35.410Z,80.67
2022-11-16T22:47:03.579Z,79.96
2022-11-16T22:49:31.323Z,80.22
2022-11-16T22:51:59.270Z,79.75
2022-11-16T22:54:28.826Z,80.25
2022-11-16T22:56:57.108Z,79.69
2022-11-16T22:59:24.780Z,80.09
2022-11-16T23:01:52.838Z,80.22
2022-11-16T23:04:20.593Z,80.17
2022-11-16T23:06:49.644Z,80.28
2022-11-16T23:09:17.435Z,79.94
2022-11-16T23:12:20.547Z,79.81
2022-11-16T23:15:06.949Z,79.87
2022-11-16T23:17:34.990Z,79.60
2022-11-16T23:20:21.780Z,79.84
2022-11-16T23:23:08.429Z,79.08
2022-11-16T23:25:55.429Z,79.18
2022-11-16T23:28:23.476Z,78.94
2022-11-16T23:30:51.223Z,79.39
2022-11-16T23:33:39.194Z,78.85
2022-11-16T23:36:07.335Z,78.83
2022-11-16T23:38:35.330Z,78.66
2022-11-16T23:41:23.067Z,78.48
2022-11-16T23:44:00.648Z,78.55
2022-11-16T23:46:30.349Z,78.26
2022-11-16T23:48:59.143Z,77.17
2022-11-16T23:51:27.259Z,76.84
2022-11-16T23:53:55.896Z,76.37
2022-11-16T23:56:24.431Z,76.32
2022-11-16T23:58:57.400Z,76.05
